Hattiesburg Laurel Regional Airport
KPIB : now visible

Airfield :











YOU CAN JOIN US ON...

 
LOGIN :

Register | Disclaimer

   EN    FR    IT 

 









Legend :    VFR   Marginal VFR   IFR   Intensive IFR   Very Intensive IFR
Visi :
Ceiling :
>= 8 km
>= 3000ft
5 to 8 km
1000 to 3000 ft
1500m to 5 km
500 to 1000 ft
800 to 1500m
200 to 500 ft
< 800m
< 200 ft
Symbols :   Thunderstorms  Fog  Heavy snow  Heavy precipitations  Wind > 20 kt






- Airport Elevation : 298 ft
- IATA code : PIB


KPIB - Hattiesburg Laurel Regional

CURRENT METAR :
  • 092356Z AUTO 02004KT 10SM CLR 25/21 A2978 RMK AO2 SLP080 T02500211 10317 20250 56012

EXPIRED METARs :
  • 092256Z AUTO 03005KT 10SM CLR 27/21 A2979 RMK AO2 SLP085 T02720206
  • 092156Z AUTO 01005KT 10SM CLR 29/21 A2979 RMK AO2 SLP085 T02890206

TAF KPIB
Valid from the 10 at 00:00 until the 11 at 00:00 UTC


092345Z 1000/1024 02007KT P6SM OVC250
FM100500 02010KT 6SM -RA SCT015 BKN035 OVC050
FM101100 01011G18KT P6SM SCT100



MET'MAP, your aeronautical weather chart ! - Copyright ORBIFLY December 2007 - Disclaimer

ORBIFLY MET'MAP TEAM :

Programming & Development : Alexandra Zaïnal
Concept & original design : Baudouin d'Aumeries
Assistance for programming : Marc-Olivier Méhu
Technical & hardware support : Manuel Goepfert

Contact : metmap@orbifly.com




SOURCES & CREDITS :

   NOAA       Earth
Advisory